Time,TemperatureF,DewpointF,PressureIn,WindDirection,WindDirectionDegrees,WindSpeedMPH,WindSpeedGustMPH,Humidity,HourlyPrecipIn,Conditions,Clouds,dailyrainin,SoftwareType,DateUTC
2013-03-23 00:02:00,28.0,14.0,-100.00,West,265,0.0,0.0,55,0.00,,,-99.99,,2013-03-23 06:02:00,
2013-03-23 00:12:00,28.0,14.0,-100.00,West,280,0.0,0.0,56,0.00,,,-99.99,,2013-03-23 06:12:00,
2013-03-23 00:21:00,28.0,14.0,-100.00,West,280,0.0,0.0,56,0.00,,,-99.99,,2013-03-23 06:21:00,
2013-03-23 00:31:00,27.0,14.0,-100.00,West,260,4.0,12.0,56,0.00,,,-99.99,,2013-03-23 06:31:00,
2013-03-23 00:42:00,27.0,14.0,-100.00,SW,230,2.0,8.0,56,0.00,,,-99.99,,2013-03-23 06:42:00,
2013-03-23 00:51:00,27.0,14.0,-100.00,SW,230,1.0,6.0,57,0.00,,,-99.99,,2013-03-23 06:51:00,
2013-03-23 01:02:00,26.0,14.0,-100.00,SW,235,3.0,10.0,59,0.00,,,-99.99,,2013-03-23 07:02:00,
2013-03-23 01:12:00,26.0,14.0,-100.00,West,265,4.0,7.0,61,0.00,,,-99.99,,2013-03-23 07:12:00,
2013-03-23 01:21:00,25.0,14.0,-100.00,West,270,0.0,5.0,62,0.00,,,-99.99,,2013-03-23 07:21:00,
2013-03-23 01:32:00,25.0,15.0,-100.00,WNW,290,0.0,3.0,64,0.00,,,-99.99,,2013-03-23 07:32:00,
2013-03-23 01:42:00,24.0,15.0,-100.00,WNW,295,1.0,2.0,66,0.00,,,-99.99,,2013-03-23 07:42:00,
2013-03-23 01:52:00,24.0,16.0,-100.00,NNW,330,0.0,6.0,68,0.00,,,-99.99,,2013-03-23 07:52:00,
2013-03-23 02:02:00,24.0,16.0,-100.00,WSW,240,0.0,3.0,70,0.00,,,-99.99,,2013-03-23 08:02:00,
2013-03-23 02:12:00,24.0,16.0,-100.00,South,190,1.0,3.0,72,0.00,,,-99.99,,2013-03-23 08:12:00,
2013-03-23 02:22:00,24.0,16.0,-100.00,SE,130,4.0,6.0,74,0.00,,,-99.99,,2013-03-23 08:22:00,
2013-03-23 02:31:00,23.0,17.0,-100.00,SE,135,2.0,5.0,75,0.00,,,-99.99,,2013-03-23 08:31:00,
2013-03-23 02:42:00,23.0,17.0,-100.00,SE,130,2.0,4.0,75,0.00,,,-99.99,,2013-03-23 08:42:00,
2013-03-23 02:51:00,23.0,17.0,-100.00,ESE,110,2.0,4.0,76,0.00,,,-99.99,,2013-03-23 08:51:00,
2013-03-23 03:02:00,23.0,17.0,-100.00,SSE,155,1.0,5.0,77,0.00,,,-99.99,,2013-03-23 09:02:00,
2013-03-23 03:12:00,23.0,17.0,-100.00,SW,220,0.0,4.0,77,0.00,,,-99.99,,2013-03-23 09:12:00,
2013-03-23 03:21:00,23.0,17.0,-100.00,SSE,165,0.0,4.0,77,0.00,,,-99.99,,2013-03-23 09:21:00,
2013-03-23 03:32:00,23.0,17.0,-100.00,South,190,0.0,1.0,77,0.00,,,-99.99,,2013-03-23 09:32:00,
2013-03-23 03:42:00,23.0,17.0,-100.00,SE,145,0.0,0.0,77,0.00,,,-99.99,,2013-03-23 09:42:00,
2013-03-23 03:52:00,23.0,17.0,-100.00,SE,125,0.0,0.0,77,0.00,,,-99.99,,2013-03-23 09:52:00,
2013-03-23 04:02:00,24.0,17.0,-100.00,East,95,4.0,6.0,77,0.00,,,-99.99,,2013-03-23 10:02:00,
2013-03-23 04:12:00,24.0,17.0,-100.00,SE,135,0.0,4.0,76,0.00,,,-99.99,,2013-03-23 10:12:00,
2013-03-23 04:22:00,24.0,17.0,-100.00,ESE,120,0.0,0.0,75,0.00,,,-99.99,,2013-03-23 10:22:00,
2013-03-23 04:33:00,23.0,16.0,-100.00,West,265,0.0,2.0,74,0.00,,,-99.99,,2013-03-23 10:33:00,
2013-03-23 04:42:00,23.0,16.0,-100.00,SW,220,0.0,0.0,73,0.00,,,-99.99,,2013-03-23 10:42:00,
2013-03-23 04:52:00,23.0,15.0,-100.00,West,270,0.0,1.0,73,0.00,,,-99.99,,2013-03-23 10:52:00,
2013-03-23 05:02:00,23.0,16.0,-100.00,West,265,4.0,9.0,72,0.00,,,-99.99,,2013-03-23 11:02:00,
2013-03-23 05:12:00,22.0,14.0,-100.00,West,260,6.0,13.0,68,0.00,,,-99.99,,2013-03-23 11:12:00,
2013-03-23 05:21:00,22.0,12.0,-100.00,NW,305,7.0,14.0,65,0.00,,,-99.99,,2013-03-23 11:21:00,
2013-03-23 05:32:00,22.0,11.0,-100.00,NW,320,11.0,17.0,60,0.00,,,-99.99,,2013-03-23 11:32:00,
2013-03-23 05:42:00,22.0,10.0,-100.00,NNW,335,9.0,15.0,59,0.00,,,-99.99,,2013-03-23 11:42:00,
2013-03-23 05:51:00,22.0,11.0,-100.00,NNW,345,9.0,16.0,61,0.00,,,-99.99,,2013-03-23 11:51:00,
2013-03-23 06:02:00,21.0,10.0,-100.00,NW,325,7.0,15.0,62,0.00,,,-99.99,,2013-03-23 12:02:00,
2013-03-23 06:12:00,21.0,10.0,-100.00,North,350,9.0,15.0,62,0.00,,,-99.99,,2013-03-23 12:12:00,
2013-03-23 06:21:00,21.0,10.0,-100.00,NNW,340,6.0,13.0,60,0.00,,,-99.99,,2013-03-23 12:21:00,
2013-03-23 06:32:00,22.0,10.0,-100.00,NNW,330,9.0,12.0,59,0.00,,,-99.99,,2013-03-23 12:32:00,
2013-03-23 06:42:00,21.0,9.0,-100.00,NW,305,3.0,12.0,58,0.00,,,-99.99,,2013-03-23 12:42:00,
2013-03-23 06:52:00,21.0,9.0,-100.00,West,280,3.0,10.0,58,0.00,,,-99.99,,2013-03-23 12:52:00,
2013-03-23 07:02:00,21.0,9.0,-100.00,WSW,255,2.0,9.0,59,0.00,,,-99.99,,2013-03-23 13:02:00,
2013-03-23 07:11:00,21.0,10.0,-100.00,West,275,1.0,4.0,60,0.00,,,-99.99,,2013-03-23 13:11:00,
2013-03-23 07:21:00,20.0,9.0,-100.00,North,350,7.0,10.0,61,0.00,,,-99.99,,2013-03-23 13:21:00,
2013-03-23 07:32:00,21.0,10.0,-100.00,NNW,330,8.0,11.0,61,0.00,,,-99.99,,2013-03-23 13:32:00,
2013-03-23 07:42:00,20.0,9.0,-100.00,NW,310,5.0,10.0,60,0.00,,,-99.99,,2013-03-23 13:42:00,
2013-03-23 07:52:00,20.0,9.0,-100.00,NNW,335,6.0,10.0,60,0.00,,,-99.99,,2013-03-23 13:52:00,
2013-03-23 08:02:00,20.0,9.0,-100.00,NW,305,6.0,10.0,61,0.00,,,-99.99,,2013-03-23 14:02:00,
2013-03-23 08:12:00,20.0,9.0,-100.00,NW,320,2.0,8.0,61,0.00,,,-99.99,,2013-03-23 14:12:00,
2013-03-23 08:21:00,20.0,9.0,-100.00,West,260,2.0,8.0,61,0.00,,,-99.99,,2013-03-23 14:21:00,
2013-03-23 08:32:00,21.0,10.0,-100.00,West,275,2.0,7.0,61,0.00,,,-99.99,,2013-03-23 14:32:00,
2013-03-23 08:42:00,21.0,10.0,-100.00,NW,315,6.0,9.0,60,0.00,,,-99.99,,2013-03-23 14:42:00,
2013-03-23 08:52:00,20.0,9.0,-100.00,NW,315,8.0,13.0,59,0.00,,,-99.99,,2013-03-23 14:52:00,
2013-03-23 09:02:00,21.0,9.0,-100.00,NW,310,6.0,9.0,58,0.00,,,-99.99,,2013-03-23 15:02:00,
2013-03-23 09:11:00,22.0,9.0,-100.00,NNW,330,4.0,9.0,57,0.00,,,-99.99,,2013-03-23 15:11:00,
2013-03-23 09:21:00,22.0,8.0,-100.00,NNW,330,6.0,11.0,56,0.00,,,-99.99,,2013-03-23 15:21:00,
2013-03-23 09:33:00,21.0,7.0,-100.00,NNW,340,7.0,12.0,54,0.00,,,-99.99,,2013-03-23 15:33:00,
2013-03-23 09:43:00,22.0,7.0,-100.00,NNW,335,6.0,12.0,53,0.00,,,-99.99,,2013-03-23 15:43:00,
2013-03-23 09:52:00,22.0,7.0,-100.00,NNW,335,10.0,14.0,52,0.00,,,-99.99,,2013-03-23 15:52:00,
2013-03-23 10:02:00,22.0,8.0,-100.00,WNW,300,4.0,16.0,55,0.00,,,-99.99,,2013-03-23 16:02:00,
2013-03-23 10:11:00,23.0,10.0,-100.00,WSW,255,0.0,6.0,55,0.00,,,-99.99,,2013-03-23 16:11:00,
2013-03-23 10:22:00,23.0,9.0,-100.00,NNW,340,7.0,11.0,54,0.00,,,-99.99,,2013-03-23 16:22:00,
2013-03-23 10:32:00,23.0,9.0,-100.00,West,270,4.0,7.0,54,0.00,,,-99.99,,2013-03-23 16:32:00,
2013-03-23 10:42:00,24.0,9.0,-100.00,West,265,1.0,12.0,51,0.00,,,-99.99,,2013-03-23 16:42:00,
2013-03-23 10:52:00,24.0,8.0,-100.00,NNW,335,9.0,12.0,49,0.00,,,-99.99,,2013-03-23 16:52:00,
2013-03-23 11:02:00,24.0,7.0,-100.00,NW,305,7.0,12.0,47,0.00,,,-99.99,,2013-03-23 17:02:00,
2013-03-23 11:11:00,24.0,7.0,-100.00,West,265,3.0,14.0,46,0.00,,,-99.99,,2013-03-23 17:11:00,
2013-03-23 11:21:00,26.0,8.0,-100.00,West,270,4.0,7.0,46,0.00,,,-99.99,,2013-03-23 17:21:00,
2013-03-23 11:32:00,27.0,9.0,-100.00,West,265,4.0,11.0,46,0.00,,,-99.99,,2013-03-23 17:32:00,
2013-03-23 11:42:00,30.0,12.0,-100.00,West,260,2.0,6.0,46,0.00,,,-99.99,,2013-03-23 17:42:00,
2013-03-23 11:51:00,30.0,11.0,-100.00,West,260,4.0,7.0,44,0.00,,,-99.99,,2013-03-23 17:51:00,
2013-03-23 12:02:00,30.0,10.0,-100.00,West,265,0.0,6.0,42,0.00,,,-99.99,,2013-03-23 18:02:00,
2013-03-23 12:12:00,31.0,10.0,-100.00,West,260,4.0,7.0,41,0.00,,,-99.99,,2013-03-23 18:12:00,
2013-03-23 12:21:00,28.0,8.0,-100.00,NW,320,12.0,19.0,41,0.00,,,-99.99,,2013-03-23 18:21:00,
2013-03-23 12:32:00,24.0,9.0,-100.00,NW,325,9.0,19.0,51,0.00,,,-99.99,,2013-03-23 18:32:00,
2013-03-23 12:42:00,26.0,12.0,-100.00,WSW,250,3.0,10.0,54,0.00,,,-99.99,,2013-03-23 18:42:00,
2013-03-23 12:52:00,28.0,12.0,-100.00,WNW,295,6.0,9.0,51,0.00,,,-99.99,,2013-03-23 18:52:00,
2013-03-23 13:02:00,29.0,11.0,-100.00,West,280,3.0,9.0,46,0.00,,,-99.99,,2013-03-23 19:02:00,
2013-03-23 13:12:00,30.0,11.0,-100.00,WSW,250,2.0,7.0,44,0.00,,,-99.99,,2013-03-23 19:12:00,
2013-03-23 13:22:00,31.0,11.0,-100.00,WSW,240,2.0,9.0,43,0.00,,,-99.99,,2013-03-23 19:22:00,
2013-03-23 13:32:00,31.0,10.0,-100.00,SW,220,2.0,7.0,40,0.00,,,-99.99,,2013-03-23 19:32:00,
2013-03-23 13:42:00,28.0,8.0,-100.00,North,0,10.0,16.0,42,0.00,,,-99.99,,2013-03-23 19:42:00,
2013-03-23 13:52:00,25.0,9.0,-100.00,North,10,7.0,12.0,48,0.00,,,-99.99,,2013-03-23 19:52:00,
2013-03-23 14:02:00,25.0,9.0,-100.00,North,0,7.0,15.0,49,0.00,,,-99.99,,2013-03-23 20:02:00,
2013-03-23 14:12:00,26.0,9.0,-100.00,North,0,8.0,14.0,48,0.00,,,-99.99,,2013-03-23 20:12:00,
2013-03-23 14:21:00,26.0,8.0,-100.00,North,0,7.0,14.0,45,0.00,,,-99.99,,2013-03-23 20:21:00,
2013-03-23 14:32:00,27.0,8.0,-100.00,West,265,5.0,12.0,44,0.00,,,-99.99,,2013-03-23 20:32:00,
2013-03-23 14:42:00,28.0,10.0,-100.00,West,270,1.0,7.0,46,0.00,,,-99.99,,2013-03-23 20:42:00,
2013-03-23 14:52:00,29.0,11.0,-100.00,WNW,295,2.0,6.0,46,0.00,,,-99.99,,2013-03-23 20:52:00,
2013-03-23 15:02:00,31.0,12.0,-100.00,WNW,285,0.0,7.0,43,0.00,,,-99.99,,2013-03-23 21:02:00,
2013-03-23 15:12:00,29.0,8.0,-100.00,NNW,335,7.0,12.0,39,0.00,,,-99.99,,2013-03-23 21:12:00,
2013-03-23 15:21:00,29.0,7.0,-100.00,NW,325,6.0,12.0,38,0.00,,,-99.99,,2013-03-23 21:21:00,
2013-03-23 15:32:00,28.0,6.0,-100.00,WSW,245,4.0,12.0,39,0.00,,,-99.99,,2013-03-23 21:32:00,
2013-03-23 15:42:00,28.0,7.0,-100.00,SSE,150,0.0,6.0,40,0.00,,,-99.99,,2013-03-23 21:42:00,
2013-03-23 15:53:00,28.0,7.0,-100.00,NNW,340,5.0,9.0,40,0.00,,,-99.99,,2013-03-23 21:53:00,
2013-03-23 16:02:00,28.0,6.0,-100.00,NW,325,7.0,14.0,38,0.00,,,-99.99,,2013-03-23 22:02:00,
2013-03-23 16:12:00,29.0,7.0,-100.00,NNW,330,2.0,9.0,37,0.00,,,-99.99,,2013-03-23 22:12:00,
2013-03-23 16:22:00,30.0,8.0,-100.00,WNW,300,7.0,14.0,38,0.00,,,-99.99,,2013-03-23 22:22:00,
2013-03-23 16:32:00,30.0,8.0,-100.00,WNW,285,7.0,14.0,39,0.00,,,-99.99,,2013-03-23 22:32:00,
2013-03-23 16:42:00,28.0,7.0,-100.00,NW,310,12.0,20.0,40,0.00,,,-99.99,,2013-03-23 22:42:00,
2013-03-23 16:52:00,28.0,8.0,-100.00,NW,310,7.0,24.0,41,0.00,,,-99.99,,2013-03-23 22:52:00,
2013-03-23 17:02:00,28.0,8.0,-100.00,NW,315,12.0,17.0,43,0.00,,,-99.99,,2013-03-23 23:02:00,
2013-03-23 17:12:00,26.0,9.0,-100.00,NW,325,12.0,20.0,47,0.00,,,-99.99,,2013-03-23 23:12:00,
2013-03-23 17:22:00,26.0,10.0,-100.00,NW,320,6.0,18.0,49,0.00,,,-99.99,,2013-03-23 23:22:00,
2013-03-23 17:32:00,26.0,10.0,-100.00,NW,310,10.0,16.0,50,0.00,,,-99.99,,2013-03-23 23:32:00,
2013-03-23 17:42:00,25.0,10.0,-100.00,NW,310,7.0,20.0,51,0.00,,,-99.99,,2013-03-23 23:42:00,
2013-03-23 17:51:00,25.0,10.0,-100.00,NNW,330,11.0,17.0,51,0.00,,,-99.99,,2013-03-23 23:51:00,
2013-03-23 18:01:00,25.0,10.0,-100.00,NNW,330,9.0,12.0,51,0.00,,,-99.99,,2013-03-24 00:01:00,
2013-03-23 18:12:00,25.0,10.0,-100.00,NW,325,7.0,15.0,51,0.00,,,-99.99,,2013-03-24 00:12:00,
2013-03-23 18:21:00,25.0,9.0,-100.00,WNW,295,4.0,14.0,50,0.00,,,-99.99,,2013-03-24 00:21:00,
2013-03-23 18:32:00,25.0,9.0,-100.00,WNW,285,6.0,14.0,50,0.00,,,-99.99,,2013-03-24 00:32:00,
2013-03-23 18:42:00,25.0,9.0,-100.00,West,265,4.0,11.0,50,0.00,,,-99.99,,2013-03-24 00:42:00,
2013-03-23 18:52:00,25.0,9.0,-100.00,WNW,290,4.0,12.0,50,0.00,,,-99.99,,2013-03-24 00:52:00,
2013-03-23 19:02:00,25.0,9.0,-100.00,WSW,240,3.0,9.0,50,0.00,,,-99.99,,2013-03-24 01:02:00,
2013-03-23 19:12:00,25.0,8.0,-100.00,NW,315,6.0,11.0,48,0.00,,,-99.99,,2013-03-24 01:12:00,
2013-03-23 19:21:00,24.0,8.0,-100.00,NW,310,4.0,14.0,48,0.00,,,-99.99,,2013-03-24 01:21:00,
2013-03-23 19:32:00,24.0,7.0,-100.00,WNW,295,4.0,10.0,48,0.00,,,-99.99,,2013-03-24 01:32:00,
2013-03-23 19:42:00,24.0,7.0,-100.00,WNW,295,4.0,10.0,48,0.00,,,-99.99,,2013-03-24 01:42:00,
2013-03-23 19:52:00,23.0,7.0,-100.00,NW,305,2.0,10.0,48,0.00,,,-99.99,,2013-03-24 01:52:00,
2013-03-23 20:02:00,23.0,7.0,-100.00,NNW,340,3.0,7.0,49,0.00,,,-99.99,,2013-03-24 02:02:00,
2013-03-23 20:12:00,23.0,7.0,-100.00,North,0,2.0,5.0,49,0.00,,,-99.99,,2013-03-24 02:12:00,
2013-03-23 20:21:00,23.0,7.0,-100.00,NNW,345,2.0,7.0,49,0.00,,,-99.99,,2013-03-24 02:21:00,
2013-03-23 20:32:00,23.0,7.0,-100.00,SSW,200,0.0,4.0,50,0.00,,,-99.99,,2013-03-24 02:32:00,
2013-03-23 20:42:00,22.0,6.0,-100.00,SSE,165,0.0,0.0,50,0.00,,,-99.99,,2013-03-24 02:42:00,
2013-03-23 20:52:00,21.0,6.0,-100.00,SW,235,0.0,1.0,51,0.00,,,-99.99,,2013-03-24 02:52:00,
2013-03-23 21:02:00,22.0,7.0,-100.00,NNW,335,5.0,7.0,51,0.00,,,-99.99,,2013-03-24 03:02:00,
2013-03-23 21:12:00,22.0,6.0,-100.00,NW,315,4.0,7.0,49,0.00,,,-99.99,,2013-03-24 03:12:00,
2013-03-23 21:32:00,22.0,5.0,-100.00,NW,305,2.0,7.0,47,0.00,,,-99.99,,2013-03-24 03:32:00,
2013-03-23 21:42:00,21.0,4.0,-100.00,WSW,255,1.0,6.0,47,0.00,,,-99.99,,2013-03-24 03:42:00,
2013-03-23 21:52:00,20.0,4.0,-100.00,SW,220,0.0,0.0,48,0.00,,,-99.99,,2013-03-24 03:52:00,
2013-03-23 22:02:00,19.0,3.0,-100.00,WSW,245,0.0,0.0,49,0.00,,,-99.99,,2013-03-24 04:02:00,
2013-03-23 22:12:00,19.0,3.0,-100.00,WSW,255,0.0,0.0,50,0.00,,,-99.99,,2013-03-24 04:12:00,
2013-03-23 22:22:00,18.0,3.0,-100.00,South,185,0.0,0.0,51,0.00,,,-99.99,,2013-03-24 04:22:00,
2013-03-23 22:32:00,18.0,3.0,-100.00,SSE,160,0.0,0.0,51,0.00,,,-99.99,,2013-03-24 04:32:00,
2013-03-23 22:42:00,17.0,3.0,-100.00,SSE,150,0.0,0.0,52,0.00,,,-99.99,,2013-03-24 04:42:00,
2013-03-23 22:52:00,18.0,4.0,-100.00,ESE,120,1.0,2.0,54,0.00,,,-99.99,,2013-03-24 04:52:00,
2013-03-23 23:02:00,17.0,4.0,-100.00,ESE,110,0.0,2.0,54,0.00,,,-99.99,,2013-03-24 05:02:00,
2013-03-23 23:12:00,17.0,4.0,-100.00,South,170,0.0,1.0,55,0.00,,,-99.99,,2013-03-24 05:12:00,
2013-03-23 23:22:00,17.0,3.0,-100.00,SSE,155,0.0,0.0,55,0.00,,,-99.99,,2013-03-24 05:22:00,
2013-03-23 23:32:00,16.0,3.0,-100.00,SE,145,1.0,4.0,56,0.00,,,-99.99,,2013-03-24 05:32:00,
2013-03-23 23:42:00,16.0,3.0,-100.00,SE,135,4.0,7.0,57,0.00,,,-99.99,,2013-03-24 05:42:00,
2013-03-23 23:51:00,15.0,3.0,-100.00,SE,145,4.0,9.0,58,0.00,,,-99.99,,2013-03-24 05:51:00,